Time;durP1;ratioP1;P1;durP2;ratioP2;P2;SDS_P1;SDS_P2;PMS_P1;PMS_P2;Temp;Humidity;BMP_temperature;BMP_pressure;BME280_temperature;BME280_humidity;BME280_pressure;Samples;Min_cycle;Max_cycle;Signal;HPM_P1;HPM_P2
2021/12/13 00:02:07;;;;;;;86.03;45.53;;;;;;;8.49;100.00;102364.25;5123791;27;20036;-72
2021/12/13 00:04:49;;;;;;;86.47;46.85;;;;;;;8.44;100.00;102358.81;5125328;27;20062;-68
2021/12/13 00:07:22;;;;;;;85.57;45.15;;;;;;;8.44;100.00;102352.63;5126114;27;20034;-72
2021/12/13 00:09:50;;;;;;;82.57;46.58;;;;;;;8.44;100.00;102352.63;5123177;27;20572;-69
2021/12/13 00:12:28;;;;;;;79.38;45.55;;;;;;;8.45;100.00;102347.44;5128050;27;20039;-70
2021/12/13 00:14:57;;;;;;;79.40;44.10;;;;;;;8.40;100.00;102346.31;5121624;27;20031;-69
2021/12/13 00:17:27;;;;;;;75.32;42.88;;;;;;;8.42;100.00;102351.66;5121443;27;20076;-72
2021/12/13 00:20:06;;;;;;;82.78;43.83;;;;;;;8.38;100.00;102351.53;5120839;27;20024;-69
2021/12/13 00:22:39;;;;;;;72.15;41.47;;;;;;;8.37;100.00;102348.84;5121630;27;20123;-70
2021/12/13 00:25:13;;;;;;;75.13;42.63;;;;;;;8.38;100.00;102361.19;5124987;27;20023;-69
2021/12/13 00:27:48;;;;;;;70.47;41.70;;;;;;;8.38;100.00;102351.53;5125319;27;20042;-69
2021/12/13 00:30:39;;;;;;;72.18;41.72;;;;;;;8.38;100.00;102367.34;5124320;27;20374;-68
2021/12/13 00:33:39;;;;;;;69.15;40.83;;;;;;;8.39;100.00;102357.72;5123836;27;20085;-69
2021/12/13 00:36:10;;;;;;;63.13;39.00;;;;;;;8.33;100.00;102357.47;5123031;27;20077;-68
2021/12/13 00:38:44;;;;;;;66.68;39.58;;;;;;;8.28;100.00;102356.41;5126497;27;20070;-69
2021/12/13 00:41:14;;;;;;;63.72;38.95;;;;;;;8.27;100.00;102358.16;5125787;27;20019;-68
2021/12/13 00:43:52;;;;;;;68.45;40.63;;;;;;;8.25;100.00;102369.47;5125383;27;20019;-69
2021/12/13 00:46:19;;;;;;;66.07;41.05;;;;;;;8.24;100.00;102373.81;5108466;27;20058;-69
2021/12/13 00:48:49;;;;;;;66.28;40.00;;;;;;;8.25;100.00;102373.00;5145140;27;20031;-69
2021/12/13 00:51:31;;;;;;;64.53;37.90;;;;;;;8.32;100.00;102377.66;5146230;27;20052;-69
2021/12/13 00:54:18;;;;;;;61.88;38.05;;;;;;;8.32;100.00;102368.88;5140326;27;20032;-69
2021/12/13 00:56:50;;;;;;;64.15;39.08;;;;;;;8.25;100.00;102364.22;5144973;27;20053;-69
2021/12/13 00:59:21;;;;;;;66.25;41.08;;;;;;;8.20;100.00;102371.94;5146660;27;20031;-69
2021/12/13 01:02:11;;;;;;;65.18;39.08;;;;;;;8.18;100.00;102373.59;5144917;27;20032;-69
2021/12/13 01:05:05;;;;;;;70.40;43.17;;;;;;;8.18;100.00;102373.59;5140652;27;20048;-69
2021/12/13 01:07:33;;;;;;;72.65;42.28;;;;;;;8.20;100.00;102380.72;5121423;27;20038;-68
2021/12/13 01:10:17;;;;;;;73.32;42.72;;;;;;;8.17;100.00;102383.25;5125754;27;20026;-69
2021/12/13 01:12:45;;;;;;;73.88;41.55;;;;;;;8.17;100.00;102390.28;5125213;27;20031;-69
2021/12/13 01:15:27;;;;;;;67.00;41.13;;;;;;;8.22;100.00;102379.91;5124086;27;20031;-68
2021/12/13 01:18:16;;;;;;;69.40;39.55;;;;;;;8.19;100.00;102391.22;5118508;27;20034;-68
2021/12/13 01:21:31;;;;;;;70.15;40.13;;;;;;;8.16;100.00;102380.56;5123746;27;20031;-69
2021/12/13 01:24:06;;;;;;;74.68;40.90;;;;;;;8.12;100.00;102387.44;5118376;27;20103;-69
2021/12/13 01:26:48;;;;;;;68.75;40.38;;;;;;;8.13;100.00;102388.34;5124970;28;20058;-68
2021/12/13 01:29:20;;;;;;;75.00;41.13;;;;;;;8.15;100.00;102384.03;5125128;28;20036;-68
2021/12/13 01:31:49;;;;;;;69.13;38.28;;;;;;;8.09;100.00;102389.06;5122572;28;20075;-68
2021/12/13 01:34:16;;;;;;;71.43;39.85;;;;;;;8.06;100.00;102392.47;5124806;28;20039;-68
2021/12/13 01:36:53;;;;;;;75.22;40.40;;;;;;;8.05;100.00;102395.94;5123447;28;20027;-68
2021/12/13 01:39:22;;;;;;;75.65;41.58;;;;;;;8.05;100.00;102397.69;5125405;28;20034;-68
2021/12/13 01:41:58;;;;;;;76.70;41.55;;;;;;;8.05;100.00;102395.03;5122596;28;20374;-68
2021/12/13 01:44:29;;;;;;;76.18;41.58;;;;;;;8.08;100.00;102393.44;5118125;28;20027;-68
2021/12/13 01:47:02;;;;;;;74.90;40.03;;;;;;;8.08;100.00;102398.72;5118496;28;20059;-68
2021/12/13 01:49:36;;;;;;;71.05;38.95;;;;;;;8.05;100.00;102403.81;5119153;28;20056;-68
2021/12/13 01:52:12;;;;;;;77.32;40.95;;;;;;;8.03;100.00;102410.78;5124968;28;20023;-68
2021/12/13 01:54:39;;;;;;;73.03;39.97;;;;;;;8.03;100.00;102409.03;5123628;28;20094;-68
2021/12/13 01:59:55;;;;;;;83.80;42.35;;;;;;;8.02;100.00;102412.53;5123309;28;20538;-69
2021/12/13 02:02:21;;;;;;;81.65;42.13;;;;;;;7.96;100.00;102407.00;5121707;28;20027;-70
2021/12/13 02:05:14;;;;;;;81.15;42.90;;;;;;;7.96;100.00;102409.63;5124813;28;20031;-68
2021/12/13 02:07:53;;;;;;;81.00;42.60;;;;;;;7.98;100.00;102410.59;5121891;28;20032;-68
2021/12/13 02:10:27;;;;;;;82.57;43.28;;;;;;;7.96;100.00;102414.00;5122494;28;20023;-68
2021/12/13 02:12:58;;;;;;;75.07;40.92;;;;;;;8.00;100.00;102415.94;5117402;28;20435;-68
2021/12/13 02:18:13;;;;;;;82.32;42.30;;;;;;;7.95;100.00;102413.13;5125938;27;20096;-68
2021/12/13 02:20:43;;;;;;;82.28;41.10;;;;;;;7.94;100.00;102408.69;5127633;27;20054;-69
2021/12/13 02:23:08;;;;;;;82.00;43.22;;;;;;;7.97;100.00;102395.63;5127146;27;20024;-68
2021/12/13 02:25:42;;;;;;;87.82;44.13;;;;;;;7.93;100.00;102398.97;5127958;27;20431;-70
2021/12/13 02:28:18;;;;;;;87.20;42.80;;;;;;;7.92;100.00;102391.00;5126940;27;20039;-68
2021/12/13 02:30:49;;;;;;;87.90;43.47;;;;;;;7.91;100.00;102395.41;5126841;27;20031;-69
2021/12/13 02:33:19;;;;;;;91.63;43.85;;;;;;;7.91;100.00;102405.03;5127913;27;20436;-68
2021/12/13 02:35:52;;;;;;;89.15;43.65;;;;;;;7.88;100.00;102405.81;5126474;27;20458;-68
2021/12/13 02:38:19;;;;;;;90.32;44.35;;;;;;;7.86;100.00;102404.84;5128049;27;20064;-69
2021/12/13 02:40:44;;;;;;;93.07;44.97;;;;;;;7.86;100.00;102415.38;5126216;27;20127;-68
2021/12/13 02:43:15;;;;;;;92.30;43.25;;;;;;;7.85;100.00;102406.56;5126953;27;20102;-69
2021/12/13 02:45:45;;;;;;;93.85;44.22;;;;;;;7.83;100.00;102409.97;5126512;27;20019;-69
2021/12/13 02:48:21;;;;;;;95.15;45.20;;;;;;;7.82;100.00;102405.53;5126452;27;20053;-69
2021/12/13 02:50:51;;;;;;;93.18;45.53;;;;;;;7.80;100.00;102401.97;5125207;27;20440;-68
2021/12/13 02:53:22;;;;;;;91.80;43.25;;;;;;;7.82;100.00;102410.81;5127265;27;20022;-68
2021/12/13 02:55:48;;;;;;;93.53;44.80;;;;;;;7.81;100.00;102409.91;5107092;27;20375;-68
2021/12/13 02:58:16;;;;;;;92.68;44.15;;;;;;;7.81;100.00;102409.03;5127197;27;20106;-68
2021/12/13 03:00:50;;;;;;;88.10;42.58;;;;;;;7.82;100.00;102413.44;5126239;27;20023;-68
2021/12/13 03:03:20;;;;;;;92.57;42.75;;;;;;;7.80;100.00;102407.22;5127373;27;20112;-70
2021/12/13 03:05:49;;;;;;;87.93;43.33;;;;;;;7.78;100.00;102406.28;5125819;27;20020;-68
2021/12/13 03:08:24;;;;;;;92.05;43.80;;;;;;;7.80;100.00;102404.59;5127184;27;20103;-68
2021/12/13 03:10:56;;;;;;;89.97;42.58;;;;;;;7.78;100.00;102401.91;5124941;27;20488;-68
2021/12/13 03:13:22;;;;;;;89.30;42.67;;;;;;;7.76;100.00;102400.94;5127858;27;20038;-68
2021/12/13 03:15:56;;;;;;;89.72;43.85;;;;;;;7.79;100.00;102413.31;5125190;27;20076;-68
2021/12/13 03:18:32;;;;;;;89.25;42.55;;;;;;;7.77;100.00;102401.84;5128099;27;20023;-68
2021/12/13 03:21:03;;;;;;;89.55;42.80;;;;;;;7.77;100.00;102399.22;5121330;27;20028;-68
2021/12/13 03:24:25;;;;;;;91.20;42.85;;;;;;;7.81;100.00;102402.00;5121128;27;20035;-68
2021/12/13 03:27:12;;;;;;;89.82;43.45;;;;;;;7.75;100.00;102407.03;5022950;28;20299;-68
2021/12/13 03:29:59;;;;;;;88.93;42.10;;;;;;;7.75;100.00;102400.88;5022713;28;20682;-68
2021/12/13 03:32:38;;;;;;;89.40;42.10;;;;;;;7.79;100.00;102411.59;5017457;28;20529;-69
2021/12/13 03:35:10;;;;;;;82.90;42.10;;;;;;;7.78;100.00;102408.91;5019427;28;20046;-68
2021/12/13 03:37:37;;;;;;;80.68;40.30;;;;;;;7.74;100.00;102413.13;5023701;28;20034;-68
2021/12/13 03:40:14;;;;;;;81.75;39.92;;;;;;;7.76;100.00;102407.94;5021522;28;20044;-68
2021/12/13 03:42:45;;;;;;;86.40;41.45;;;;;;;7.73;100.00;102405.19;5022873;28;20032;-68
2021/12/13 03:45:41;;;;;;;84.72;43.45;;;;;;;7.78;100.00;102401.00;5022459;28;20085;-69
2021/12/13 03:48:11;;;;;;;87.47;42.25;;;;;;;7.71;100.00;102402.47;5019933;28;20030;-68
2021/12/13 03:50:40;;;;;;;80.40;39.33;;;;;;;7.73;100.00;102405.19;5023117;28;20041;-68
2021/12/13 03:53:10;;;;;;;80.22;40.97;;;;;;;7.71;100.00;102409.50;5022006;28;20036;-68
2021/12/13 03:55:39;;;;;;;85.68;40.72;;;;;;;7.68;100.00;102411.16;5023083;28;20473;-68
2021/12/13 03:58:09;;;;;;;80.90;41.10;;;;;;;7.72;100.00;102416.53;5086528;27;20036;-68
2021/12/13 04:00:43;;;;;;;82.78;40.50;;;;;;;7.70;100.00;102415.59;5126049;27;20031;-68
2021/12/13 04:03:12;;;;;;;77.70;39.05;;;;;;;7.68;100.00;102408.50;5125100;27;20098;-68
2021/12/13 04:05:39;;;;;;;82.90;40.00;;;;;;;7.67;100.00;102414.63;5107131;27;20035;-68
2021/12/13 04:08:08;;;;;;;84.47;42.53;;;;;;;7.64;100.00;102414.47;5124409;27;20386;-68
2021/12/13 04:10:43;;;;;;;82.40;40.63;;;;;;;7.66;100.00;102410.19;5125915;27;20071;-68
2021/12/13 04:13:14;;;;;;;86.32;41.40;;;;;;;7.65;100.00;102411.03;5124713;27;20023;-68
2021/12/13 04:19:12;;;;;;;81.60;39.70;;;;;;;7.66;100.00;102418.09;5023757;28;20041;-69
2021/12/13 04:21:57;;;;;;;79.40;39.30;;;;;;;7.64;100.00;102419.75;5021986;28;20030;-68
2021/12/13 04:24:34;;;;;;;78.20;38.88;;;;;;;7.64;100.00;102421.50;5020262;28;20056;-73
2021/12/13 04:27:06;;;;;;;76.72;38.28;;;;;;;7.63;100.00;102425.88;5016189;28;20026;-74
2021/12/13 04:29:36;;;;;;;82.10;38.67;;;;;;;7.64;100.00;102417.09;5022790;28;20041;-74
2021/12/13 04:32:12;;;;;;;77.25;38.33;;;;;;;7.64;100.00;102424.13;5020029;28;20064;-74
2021/12/13 04:34:41;;;;;;;75.05;38.42;;;;;;;7.62;100.00;102423.16;5022001;28;20029;-75
2021/12/13 04:37:11;;;;;;;77.30;38.58;;;;;;;7.60;100.00;102422.19;5020868;28;20641;-74
2021/12/13 04:39:38;;;;;;;77.90;39.47;;;;;;;7.60;100.00;102420.47;5021811;28;20207;-75
2021/12/13 04:42:11;;;;;;;75.47;37.95;;;;;;;7.59;100.00;102416.03;5020296;28;20406;-75
2021/12/13 04:44:39;;;;;;;;;;;;;;;7.66;100.00;102420.72;5022309;28;20153;-76
2021/12/13 04:47:12;;;;;;;72.07;36.17;;;;;;;7.59;100.00;102423.03;5020624;28;19918;-75
2021/12/13 04:49:41;;;;;;;75.22;36.97;;;;;;;7.55;100.00;102421.13;5021729;28;20041;-72
2021/12/13 04:52:14;;;;;;;71.95;37.15;;;;;;;7.59;100.00;102420.41;5020721;28;20026;-74
2021/12/13 04:54:43;;;;;;;73.93;36.80;;;;;;;7.57;100.00;102420.34;5041922;27;20040;-72
2021/12/13 04:57:09;;;;;;;71.18;36.58;;;;;;;7.55;100.00;102415.84;5124206;27;20031;-71
2021/12/13 04:59:36;;;;;;;69.90;36.00;;;;;;;7.58;100.00;102415.97;5122786;27;20084;-71
2021/12/13 05:02:07;;;;;;;68.53;35.53;;;;;;;7.57;100.00;102408.91;5125749;27;20100;-68
2021/12/13 05:04:33;;;;;;;64.82;34.60;;;;;;;7.59;100.00;102412.53;5123034;27;20024;-70
2021/12/13 05:07:02;;;;;;;68.40;36.28;;;;;;;7.55;100.00;102411.47;5126377;27;20029;-69
2021/12/13 05:09:28;;;;;;;67.68;34.35;;;;;;;7.57;100.00;102409.81;5122287;27;20024;-69
2021/12/13 05:12:09;;;;;;;63.17;33.65;;;;;;;7.55;100.00;102416.75;5118160;27;20023;-68
2021/12/13 05:14:42;;;;;;;59.22;33.60;;;;;;;7.58;100.00;102419.50;5120564;27;20363;-68
2021/12/13 05:17:13;;;;;;;62.80;33.60;;;;;;;7.60;100.00;102417.84;5124569;27;20102;-68
2021/12/13 05:19:45;;;;;;;60.10;32.67;;;;;;;7.62;100.00;102426.69;5123551;27;20111;-68
2021/12/13 05:22:13;;;;;;;58.22;31.65;;;;;;;7.63;100.00;102415.34;5124059;27;20027;-69
2021/12/13 05:24:51;;;;;;;58.45;31.95;;;;;;;7.65;100.00;102421.53;5123575;27;20113;-68
2021/12/13 05:27:39;;;;;;;58.05;31.48;;;;;;;7.62;100.00;102416.16;5123215;27;20035;-68
2021/12/13 05:30:14;;;;;;;56.70;32.15;;;;;;;7.64;100.00;102419.75;5120622;27;20024;-69
2021/12/13 05:32:50;;;;;;;58.60;32.35;;;;;;;7.60;100.00;102425.75;5124032;28;20447;-68
2021/12/13 05:35:32;;;;;;;55.88;31.63;;;;;;;7.60;100.00;102425.75;5124386;28;20059;-68
2021/12/13 05:38:03;;;;;;;54.20;29.60;;;;;;;7.63;100.00;102424.94;5118214;28;20038;-68
2021/12/13 05:40:40;;;;;;;53.22;30.27;;;;;;;7.61;100.00;102422.25;5118643;28;20031;-68
2021/12/13 05:43:23;;;;;;;53.88;29.38;;;;;;;7.61;100.00;102417.00;5120415;28;20027;-69
2021/12/13 05:45:51;;;;;;;52.90;28.80;;;;;;;7.58;100.00;102422.13;5122864;28;20088;-68
2021/12/13 05:48:20;;;;;;;54.47;31.83;;;;;;;7.60;100.00;102428.38;5124142;28;20019;-69
2021/12/13 05:50:49;;;;;;;54.60;30.65;;;;;;;7.56;100.00;102423.81;5125471;27;20019;-68
2021/12/13 05:53:37;;;;;;;52.65;28.52;;;;;;;7.57;100.00;102425.63;5128440;27;20028;-68
2021/12/13 05:56:08;;;;;;;51.58;28.65;;;;;;;7.60;100.00;102422.19;5123726;27;20053;-69
2021/12/13 05:58:52;;;;;;;50.92;27.60;;;;;;;7.62;100.00;102428.44;5128688;27;20052;-72
2021/12/13 06:01:43;;;;;;;49.40;27.95;;;;;;;7.56;100.00;102425.53;5128464;27;20023;-68
2021/12/13 06:04:12;;;;;;;49.97;27.02;;;;;;;7.54;100.00;102433.34;5124631;27;20043;-68
2021/12/13 06:06:47;;;;;;;51.47;28.88;;;;;;;7.50;100.00;102434.09;5127779;27;20098;-73
2021/12/13 06:09:51;;;;;;;50.00;27.88;;;;;;;7.47;100.00;102432.22;5127274;27;20031;-72
2021/12/13 06:12:33;;;;;;;47.70;26.92;;;;;;;7.49;100.00;102427.91;5127122;27;20344;-72
2021/12/13 06:15:16;;;;;;;50.08;27.75;;;;;;;7.47;100.00;102429.59;5103346;28;20024;-72
2021/12/13 06:17:55;;;;;;;49.22;27.58;;;;;;;7.49;100.00;102440.19;5125174;27;20107;-71
2021/12/13 06:21:03;;;;;;;47.40;25.38;;;;;;;7.53;100.00;102430.66;5106673;27;20446;-72
2021/12/13 06:23:32;;;;;;;48.95;26.83;;;;;;;7.47;100.00;102436.56;5005950;28;20038;-69
2021/12/13 06:26:02;;;;;;;49.13;27.10;;;;;;;7.44;100.00;102433.81;5002704;28;20102;-70
2021/12/13 06:28:33;;;;;;;46.53;24.75;;;;;;;7.45;100.00;102438.25;5006008;28;20050;-69
2021/12/13 06:31:24;;;;;;;46.38;25.33;;;;;;;7.45;100.00;102441.75;5002277;28;20030;-68
2021/12/13 06:34:04;;;;;;;47.65;27.10;;;;;;;7.44;100.00;102445.25;5001402;28;20508;-71
2021/12/13 06:36:36;;;;;;;44.70;25.05;;;;;;;7.46;100.00;102445.31;5002550;28;20031;-71
2021/12/13 06:39:03;;;;;;;47.13;26.05;;;;;;;7.43;100.00;102453.97;5003277;28;20137;-72
2021/12/13 06:41:28;;;;;;;44.83;24.15;;;;;;;7.44;100.00;102445.25;5015479;28;20040;-74
2021/12/13 06:44:02;;;;;;;46.58;25.48;;;;;;;7.44;100.00;102444.31;5014995;28;20386;-74
2021/12/13 06:46:33;;;;;;;45.55;25.25;;;;;;;7.42;100.00;102451.28;5014457;28;20505;-72
2021/12/13 06:49:04;;;;;;;44.30;24.42;;;;;;;7.45;100.00;102454.91;5010732;28;20030;-71
2021/12/13 06:51:48;;;;;;;46.65;24.73;;;;;;;7.42;100.00;102457.41;5015344;28;20470;-71
2021/12/13 06:54:30;;;;;;;43.92;24.77;;;;;;;7.48;100.00;102457.72;5015125;28;20041;-71
2021/12/13 06:57:08;;;;;;;43.47;23.73;;;;;;;7.44;100.00;102454.84;5010588;28;20370;-76
2021/12/13 06:59:56;;;;;;;43.42;23.13;;;;;;;7.41;100.00;102463.53;5034465;28;20040;-74
2021/12/13 07:02:40;;;;;;;46.10;23.77;;;;;;;7.53;100.00;102471.06;5118021;27;20493;-75
2021/12/13 07:05:10;;;;;;;43.20;23.80;;;;;;;7.43;100.00;102475.03;5116092;27;21698;-73
2021/12/13 07:07:38;;;;;;;42.65;23.55;;;;;;;7.41;100.00;102467.88;5091598;28;21446;-71
2021/12/13 07:10:16;;;;;;;42.42;22.88;;;;;;;7.42;100.00;102474.94;5117445;27;20038;-81
2021/12/13 07:12:47;;;;;;;41.92;22.77;;;;;;;7.40;100.00;102471.38;5115527;27;20036;-71
2021/12/13 07:15:37;;;;;;;43.08;23.02;;;;;;;7.44;100.00;102471.56;5115526;27;20024;-72
2021/12/13 07:18:28;;;;;;;40.63;21.88;;;;;;;7.44;100.00;102473.28;5120510;27;20035;-75
2021/12/13 07:21:02;;;;;;;43.15;23.42;;;;;;;7.42;100.00;102475.84;5117838;27;20071;-82
2021/12/13 07:23:47;;;;;;;43.22;21.58;;;;;;;7.46;100.00;102479.53;5117238;27;20036;-72
2021/12/13 07:26:13;;;;;;;42.63;22.95;;;;;;;7.43;100.00;102471.50;5118217;27;20378;-72
2021/12/13 07:28:39;;;;;;;41.25;22.30;;;;;;;7.45;100.00;102478.59;5118670;27;20027;-72
2021/12/13 07:31:07;;;;;;;41.20;21.85;;;;;;;7.44;100.00;102486.44;5121150;27;20479;-68
2021/12/13 07:33:36;;;;;;;42.30;22.73;;;;;;;7.43;100.00;102482.03;5121209;27;20121;-69
2021/12/13 07:36:15;;;;;;;43.08;22.90;;;;;;;7.47;100.00;102481.28;5116033;27;20023;-70
2021/12/13 07:38:56;;;;;;;41.03;21.90;;;;;;;7.48;100.00;102478.75;5122734;27;20023;-69
2021/12/13 07:41:24;;;;;;;43.28;23.30;;;;;;;7.46;100.00;102484.78;5114488;27;20020;-68
2021/12/13 07:43:49;;;;;;;43.88;23.38;;;;;;;7.44;100.00;102486.44;5120821;27;20370;-69
2021/12/13 07:46:18;;;;;;;42.67;22.85;;;;;;;7.43;100.00;102495.19;5116379;27;20048;-69
2021/12/13 07:48:43;;;;;;;43.45;23.90;;;;;;;7.41;100.00;102489.84;5118907;27;20025;-68
2021/12/13 07:51:25;;;;;;;42.50;23.63;;;;;;;7.44;100.00;102489.06;5115787;27;20040;-69
2021/12/13 07:53:58;;;;;;;43.10;24.33;;;;;;;7.52;100.00;102498.19;5115824;27;20028;-68
2021/12/13 07:56:36;;;;;;;44.25;23.05;;;;;;;7.46;100.00;102501.47;5115288;27;20023;-70
2021/12/13 07:59:23;;;;;;;44.10;23.45;;;;;;;7.51;100.00;102509.53;5111851;27;20035;-67
2021/12/13 08:02:04;;;;;;;43.80;23.10;;;;;;;7.48;100.00;102505.06;5115725;27;20023;-68
2021/12/13 08:04:36;;;;;;;43.38;24.55;;;;;;;7.45;100.00;102510.19;5116010;27;20031;-68
2021/12/13 08:07:13;;;;;;;44.38;23.08;;;;;;;7.50;100.00;102497.25;5113742;27;20471;-68
2021/12/13 08:09:49;;;;;;;41.80;22.95;;;;;;;7.46;100.00;102500.56;5123594;27;20019;-69
2021/12/13 08:12:17;;;;;;;44.30;24.08;;;;;;;7.47;100.00;102497.09;5120518;27;20077;-68
2021/12/13 08:14:44;;;;;;;40.47;21.02;;;;;;;7.50;100.00;102502.50;5123914;27;20020;-69
2021/12/13 08:17:16;;;;;;;42.75;22.88;;;;;;;7.51;100.00;102506.91;5124329;27;20023;-68
2021/12/13 08:19:42;;;;;;;43.25;23.88;;;;;;;7.49;100.00;102504.22;5123698;27;20079;-68
2021/12/13 08:22:16;;;;;;;40.55;22.60;;;;;;;7.51;100.00;102514.81;5115858;27;20023;-68
2021/12/13 08:24:46;;;;;;;41.10;22.85;;;;;;;7.50;100.00;102508.66;5117605;27;20117;-68
2021/12/13 08:27:16;;;;;;;40.15;22.15;;;;;;;7.48;100.00;102510.34;5118446;27;20034;-68
2021/12/13 08:29:43;;;;;;;42.38;24.00;;;;;;;7.50;100.00;102507.78;5114751;27;20019;-68
2021/12/13 08:32:18;;;;;;;39.70;22.58;;;;;;;7.49;100.00;102508.59;5117158;27;20039;-72
2021/12/13 08:34:49;;;;;;;40.38;23.23;;;;;;;7.47;100.00;102502.34;5117226;27;20039;-68
2021/12/13 08:37:40;;;;;;;40.30;22.10;;;;;;;7.52;100.00;102500.84;5120042;27;20058;-79
2021/12/13 08:40:11;;;;;;;42.15;25.20;;;;;;;7.51;100.00;102506.91;5116210;27;20032;-71
2021/12/13 08:42:42;;;;;;;39.05;22.02;;;;;;;7.56;100.00;102502.75;5116257;27;20420;-72
2021/12/13 08:45:24;;;;;;;42.17;24.63;;;;;;;7.54;100.00;102508.78;5113659;27;20032;-71
2021/12/13 08:48:01;;;;;;;39.20;22.90;;;;;;;7.56;100.00;102507.09;5116411;27;20024;-69
2021/12/13 08:50:37;;;;;;;40.42;22.92;;;;;;;7.60;100.00;102504.69;5115371;27;20571;-69
2021/12/13 08:53:16;;;;;;;38.67;21.55;;;;;;;7.60;100.00;102509.03;5117575;27;20089;-69
2021/12/13 08:55:55;;;;;;;37.75;21.92;;;;;;;7.60;100.00;102512.59;5116648;27;20074;-70
2021/12/13 08:58:21;;;;;;;39.97;23.88;;;;;;;7.58;100.00;102516.88;5116604;27;20019;-69
2021/12/13 09:00:53;;;;;;;39.85;22.42;;;;;;;7.62;100.00;102516.19;5117219;27;20526;-69
2021/12/13 09:03:30;;;;;;;35.88;21.02;;;;;;;7.66;100.00;102526.00;5117902;27;20030;-69
2021/12/13 09:06:16;;;;;;;36.75;21.77;;;;;;;7.61;100.00;102511.75;5116099;27;20033;-69
2021/12/13 09:08:57;;;;;;;39.75;23.02;;;;;;;7.61;100.00;102510.84;5115039;27;20080;-69
2021/12/13 09:11:38;;;;;;;39.38;22.55;;;;;;;7.64;100.00;102517.13;5112353;27;20478;-68
2021/12/13 09:14:03;;;;;;;36.15;21.65;;;;;;;7.67;100.00;102517.28;5122617;27;20031;-69
2021/12/13 09:16:55;;;;;;;36.42;20.83;;;;;;;7.71;100.00;102522.69;5123609;27;20034;-69
2021/12/13 09:19:33;;;;;;;36.97;21.60;;;;;;;7.75;100.00;102522.00;5003113;28;20107;-70
2021/12/13 09:22:17;;;;;;;37.50;20.83;;;;;;;7.75;100.00;102522.88;5000596;28;20065;-69
2021/12/13 09:24:56;;;;;;;36.28;20.23;;;;;;;7.76;100.00;102524.69;4999888;28;20035;-69
2021/12/13 09:27:39;;;;;;;36.28;20.50;;;;;;;7.74;100.00;102530.72;4999993;28;20046;-69
2021/12/13 09:30:35;;;;;;;37.10;22.52;;;;;;;7.74;100.00;102538.59;5001017;28;20038;-69
2021/12/13 09:33:15;;;;;;;35.05;19.60;;;;;;;7.77;100.00;102544.00;4999583;28;20049;-69
2021/12/13 09:35:52;;;;;;;36.92;21.58;;;;;;;7.75;100.00;102545.69;5002411;28;20041;-69
2021/12/13 09:38:21;;;;;;;35.63;20.40;;;;;;;7.73;100.00;102549.97;5005815;28;20041;-68
2021/12/13 09:41:04;;;;;;;34.83;21.15;;;;;;;7.78;100.00;102548.44;5013728;28;20113;-65
2021/12/13 09:43:45;;;;;;;35.80;21.27;;;;;;;7.76;100.00;102560.63;5008839;28;20135;-68
2021/12/13 09:46:14;;;;;;;32.65;19.55;;;;;;;7.77;100.00;102570.34;5009122;28;20030;-69
2021/12/13 09:48:45;;;;;;;33.70;19.45;;;;;;;7.80;100.00;102576.63;5016944;28;20041;-69
2021/12/13 09:51:19;;;;;;;33.58;19.75;;;;;;;7.79;100.00;102580.09;5015559;28;20022;-69
2021/12/13 09:53:47;;;;;;;34.13;19.17;;;;;;;7.79;100.00;102584.44;5013324;28;20041;-68
2021/12/13 09:56:15;;;;;;;31.90;18.48;;;;;;;7.79;100.00;102589.72;5053227;28;20040;-69
2021/12/13 09:58:46;;;;;;;33.67;18.33;;;;;;;7.83;100.00;102587.31;5111478;28;20023;-70
2021/12/13 10:01:23;;;;;;;32.05;18.80;;;;;;;7.85;100.00;102590.00;5110690;28;20044;-69
2021/12/13 10:04:05;;;;;;;31.50;17.75;;;;;;;7.84;100.00;102589.09;5113380;28;20047;-70
2021/12/13 10:06:43;;;;;;;31.37;18.17;;;;;;;7.85;100.00;102592.63;5112326;28;20028;-69
2021/12/13 10:09:16;;;;;;;31.23;17.67;;;;;;;7.82;100.00;102590.75;5111442;28;20273;-77
2021/12/13 10:11:52;;;;;;;;;;;;;;;7.87;100.00;102588.31;5111310;28;20490;-70
2021/12/13 10:14:24;;;;;;;32.30;18.17;;;;;;;7.87;100.00;102590.06;5113979;28;20259;-71
2021/12/13 10:16:54;;;;;;;30.00;17.40;;;;;;;7.82;100.00;102574.03;5110472;28;20103;-69
2021/12/13 10:19:27;;;;;;;30.27;16.90;;;;;;;7.83;100.00;102578.47;5099667;28;20378;-73
2021/12/13 10:21:53;;;;;;;28.65;15.48;;;;;;;7.82;100.00;102576.69;5112138;28;20042;-72
2021/12/13 10:24:34;;;;;;;30.02;16.65;;;;;;;7.84;100.00;102575.03;5114964;28;20070;-69
2021/12/13 10:27:01;;;;;;;28.17;15.32;;;;;;;7.84;100.00;102578.56;5113230;28;20028;-75
2021/12/13 10:29:27;;;;;;;28.23;15.13;;;;;;;7.90;100.00;102582.28;5120567;28;20028;-74
2021/12/13 10:32:03;;;;;;;27.50;15.18;;;;;;;7.87;100.00;102574.28;5118442;28;20125;-75
2021/12/13 10:34:33;;;;;;;27.35;14.05;;;;;;;7.86;100.00;102578.63;5119008;28;20028;-75
2021/12/13 10:37:09;;;;;;;27.45;14.85;;;;;;;7.86;100.00;102570.72;5119180;27;20070;-76
2021/12/13 10:39:40;;;;;;;27.27;13.90;;;;;;;7.85;100.00;102567.19;5104642;27;20020;-75
2021/12/13 10:42:17;;;;;;;26.33;13.65;;;;;;;7.86;100.00;102570.72;5119814;27;20501;-73
2021/12/13 10:44:44;;;;;;;27.05;14.23;;;;;;;7.87;100.00;102569.00;5118738;27;20051;-72
2021/12/13 10:47:16;;;;;;;26.45;13.98;;;;;;;7.90;100.00;102563.88;5118918;27;20047;-68
2021/12/13 10:49:46;;;;;;;27.50;14.50;;;;;;;7.88;100.00;102557.63;5120759;27;20377;-69
2021/12/13 10:52:26;;;;;;;26.65;14.07;;;;;;;7.93;100.00;102574.53;5122588;27;20023;-69
2021/12/13 10:54:55;;;;;;;26.67;13.80;;;;;;;7.92;100.00;102573.63;5127526;27;20027;-69
2021/12/13 10:57:29;;;;;;;27.23;14.02;;;;;;;7.92;100.00;102568.38;5125370;27;20497;-67
2021/12/13 10:59:55;;;;;;;24.90;12.40;;;;;;;7.93;100.00;102572.78;5127962;27;20035;-68
2021/12/13 11:02:29;;;;;;;24.38;12.48;;;;;;;7.99;100.00;102570.44;5125360;27;20027;-69
2021/12/13 11:05:17;;;;;;;26.45;12.48;;;;;;;8.02;100.00;102574.91;5128452;27;20031;-68
2021/12/13 11:07:44;;;;;;;24.67;12.63;;;;;;;7.96;100.00;102565.00;5124185;27;20019;-68
2021/12/13 11:10:15;;;;;;;25.50;12.15;;;;;;;7.98;100.00;102565.06;5127282;27;20020;-68
2021/12/13 11:12:46;;;;;;;25.55;12.82;;;;;;;8.02;100.00;102546.84;5125690;27;20527;-69
2021/12/13 11:15:18;;;;;;;25.35;12.85;;;;;;;8.04;100.00;102546.91;5126537;27;20031;-69
2021/12/13 11:17:44;;;;;;;26.02;13.65;;;;;;;8.00;100.00;102553.78;5126405;27;20164;-68
2021/12/13 11:20:18;;;;;;;25.55;12.85;;;;;;;8.02;100.00;102557.38;5126553;27;20102;-68
2021/12/13 11:22:46;;;;;;;24.58;12.30;;;;;;;8.03;100.00;102548.63;5126789;27;20127;-68
2021/12/13 11:25:34;;;;;;;24.23;12.02;;;;;;;8.05;100.00;102550.44;5126479;27;20023;-68
2021/12/13 11:28:00;;;;;;;24.20;12.50;;;;;;;8.01;100.00;102544.16;5121061;27;20062;-68
2021/12/13 11:30:29;;;;;;;24.92;12.10;;;;;;;8.02;100.00;102557.38;5128937;27;20076;-68
2021/12/13 11:32:57;;;;;;;24.65;11.77;;;;;;;8.05;100.00;102546.06;5106658;27;20051;-69
2021/12/13 11:36:12;;;;;;;25.10;12.27;;;;;;;8.09;100.00;102547.09;5128837;27;20051;-68
2021/12/13 11:39:02;;;;;;;24.27;11.95;;;;;;;8.09;100.00;102548.00;5027368;28;20095;-68
2021/12/13 11:41:38;;;;;;;23.65;11.48;;;;;;;8.10;100.00;102551.53;5030368;28;20026;-68
2021/12/13 11:44:31;;;;;;;25.25;12.15;;;;;;;8.13;100.00;102554.31;5045434;28;20044;-68
2021/12/13 11:47:15;;;;;;;25.05;12.55;;;;;;;8.11;100.00;102543.69;5035984;28;20034;-68
2021/12/13 11:50:05;;;;;;;23.23;11.70;;;;;;;8.11;100.00;102540.16;5040655;28;20034;-68
2021/12/13 11:52:50;;;;;;;24.13;11.23;;;;;;;8.14;100.00;102545.53;5038393;28;20026;-68
2021/12/13 11:55:40;;;;;;;24.40;11.15;;;;;;;8.13;100.00;102549.91;5042963;28;20045;-69